createdAt,value
2023-03-10T00:02:34.149Z,8.77
2023-03-10T00:05:05.897Z,7.57
2023-03-10T00:07:37.221Z,8.03
2023-03-10T00:10:11.201Z,8.40
2023-03-10T00:12:43.862Z,9.33
2023-03-10T00:15:15.226Z,8.70
2023-03-10T00:17:50.025Z,8.53
2023-03-10T00:20:22.912Z,8.67
2023-03-10T00:22:54.262Z,7.47
2023-03-10T00:25:25.620Z,8.27
2023-03-10T00:27:56.906Z,7.30
2023-03-10T00:30:30.688Z,8.87
2023-03-10T00:33:03.927Z,7.90
2023-03-10T00:35:35.250Z,7.53
2023-03-10T00:38:06.543Z,7.83
2023-03-10T00:40:38.017Z,8.33
2023-03-10T00:43:09.285Z,7.90
2023-03-10T00:45:40.609Z,8.03
2023-03-10T00:48:11.877Z,8.17
2023-03-10T00:50:43.134Z,7.10
2023-03-10T00:53:14.671Z,8.17
2023-03-10T00:55:57.401Z,6.53
2023-03-10T00:58:29.842Z,7.67
2023-03-10T01:01:03.193Z,7.13
2023-03-10T01:03:34.465Z,6.80
2023-03-10T01:06:05.920Z,7.53
2023-03-10T01:08:37.239Z,7.77
2023-03-10T01:11:08.553Z,8.13
2023-03-10T01:13:41.079Z,7.13
2023-03-10T01:16:12.693Z,6.40
2023-03-10T01:18:44.091Z,7.20
2023-03-10T01:21:20.000Z,7.37
2023-03-10T01:23:52.111Z,6.60
2023-03-10T01:26:23.526Z,7.40
2023-03-10T01:28:54.880Z,7.50
2023-03-10T01:31:26.345Z,7.23
2023-03-10T01:33:57.759Z,6.50
2023-03-10T01:36:29.225Z,6.47
2023-03-10T01:39:00.611Z,6.13
2023-03-10T01:41:31.891Z,6.30
2023-03-10T01:44:04.815Z,6.60
2023-03-10T01:46:46.392Z,7.07
2023-03-10T01:49:20.258Z,7.40
2023-03-10T01:51:58.391Z,5.77
2023-03-10T01:54:38.532Z,6.97
2023-03-10T01:57:13.822Z,7.60
2023-03-10T01:59:45.988Z,6.40
2023-03-10T02:02:18.782Z,6.60
2023-03-10T02:04:52.777Z,8.40
2023-03-10T02:07:28.772Z,6.60
2023-03-10T02:10:00.566Z,5.10
2023-03-10T02:12:32.266Z,7.40
2023-03-10T02:15:04.755Z,7.60
2023-03-10T02:17:36.766Z,6.13
2023-03-10T02:20:33.499Z,7.40
2023-03-10T02:23:04.842Z,7.85
2023-03-10T02:25:46.389Z,7.50
2023-03-10T02:28:18.433Z,6.93
2023-03-10T02:30:53.168Z,6.47
2023-03-10T02:33:27.617Z,8.03
2023-03-10T02:36:25.510Z,6.70
2023-03-10T02:38:56.843Z,6.77
2023-03-10T02:41:34.943Z,7.17
2023-03-10T02:44:11.518Z,6.73
2023-03-10T02:46:42.959Z,7.33
2023-03-10T02:49:15.502Z,6.87
2023-03-10T02:51:47.836Z,6.43
2023-03-10T02:54:19.173Z,6.70
2023-03-10T02:56:50.560Z,6.50
2023-03-10T02:59:21.846Z,5.10
2023-03-10T03:01:53.105Z,6.20
2023-03-10T03:04:24.374Z,7.97
2023-03-10T03:06:55.694Z,6.40
2023-03-10T03:09:27.202Z,6.93
2023-03-10T03:11:58.808Z,5.30
2023-03-10T03:14:30.076Z,7.50
2023-03-10T03:17:01.435Z,7.43
2023-03-10T03:19:33.050Z,7.23
2023-03-10T03:22:04.417Z,6.77
2023-03-10T03:24:35.780Z,5.20
2023-03-10T03:27:07.059Z,5.60
2023-03-10T03:29:38.365Z,7.37
2023-03-10T03:32:09.795Z,6.43
2023-03-10T03:34:41.268Z,6.73
2023-03-10T03:37:12.525Z,5.67
2023-03-10T03:39:43.854Z,6.57
2023-03-10T03:42:15.155Z,7.53
2023-03-10T03:44:46.495Z,5.63
2023-03-10T03:47:17.856Z,4.87
2023-03-10T03:49:49.171Z,6.70
2023-03-10T03:52:20.430Z,7.03
2023-03-10T03:54:51.956Z,5.83
2023-03-10T03:57:23.491Z,6.93
2023-03-10T03:59:54.807Z,6.83
2023-03-10T04:02:26.368Z,6.20
2023-03-10T04:04:57.667Z,7.67
2023-03-10T04:07:29.154Z,6.53
2023-03-10T04:10:00.764Z,7.07
2023-03-10T04:12:32.039Z,7.30
2023-03-10T04:15:04.751Z,6.53
2023-03-10T04:17:36.203Z,6.33
2023-03-10T04:20:09.315Z,6.67
2023-03-10T04:22:41.099Z,6.10
2023-03-10T04:25:12.894Z,6.93
2023-03-10T04:27:44.245Z,7.33
2023-03-10T04:30:15.864Z,6.90
2023-03-10T04:32:49.165Z,7.83
2023-03-10T04:35:20.694Z,7.77
2023-03-10T04:37:52.212Z,7.77
2023-03-10T04:40:23.673Z,6.77
2023-03-10T04:42:54.965Z,6.87
2023-03-10T04:45:26.869Z,7.47
2023-03-10T04:47:58.415Z,7.90
2023-03-10T04:50:30.010Z,8.03
2023-03-10T04:53:01.283Z,6.43
2023-03-10T04:55:32.617Z,8.33
2023-03-10T04:58:03.920Z,8.37
2023-03-10T05:00:35.324Z,7.70
2023-03-10T05:03:06.620Z,7.77
2023-03-10T05:05:38.552Z,8.87
2023-03-10T05:08:10.004Z,9.37
2023-03-10T05:10:43.754Z,8.53
2023-03-10T05:13:15.089Z,9.27
2023-03-10T05:15:46.464Z,8.50
2023-03-10T05:18:17.834Z,8.43
2023-03-10T05:20:54.081Z,8.63
2023-03-10T05:23:25.412Z,9.00
2023-03-10T05:25:57.046Z,8.93
2023-03-10T05:28:28.382Z,8.47
2023-03-10T05:30:59.737Z,8.60
2023-03-10T05:33:31.567Z,9.07
2023-03-10T05:36:08.042Z,9.30
2023-03-10T05:38:39.634Z,9.33
2023-03-10T05:41:11.934Z,10.87
2023-03-10T05:43:43.373Z,9.20
2023-03-10T05:46:18.599Z,9.73
2023-03-10T05:48:50.826Z,10.73
2023-03-10T05:51:22.853Z,9.90
2023-03-10T05:53:54.272Z,9.33
2023-03-10T05:56:25.973Z,11.60
2023-03-10T05:58:57.339Z,10.37
2023-03-10T06:01:28.838Z,11.87
2023-03-10T06:04:00.361Z,11.13
2023-03-10T06:06:31.693Z,11.13
2023-03-10T06:09:03.368Z,11.00
2023-03-10T06:11:34.716Z,11.63
2023-03-10T06:14:06.053Z,10.10
2023-03-10T06:16:37.400Z,11.27
2023-03-10T06:19:09.756Z,11.37
2023-03-10T06:21:41.048Z,11.00
2023-03-10T06:24:12.446Z,10.50
2023-03-10T06:26:43.881Z,11.60
2023-03-10T06:29:15.160Z,11.20
2023-03-10T06:31:46.483Z,10.67
2023-03-10T06:34:18.633Z,10.40
2023-03-10T06:36:49.999Z,11.90
2023-03-10T06:39:21.456Z,11.33
2023-03-10T06:41:52.749Z,10.57
2023-03-10T06:44:24.086Z,10.70
2023-03-10T06:46:55.433Z,11.77
2023-03-10T06:49:30.627Z,11.17
2023-03-10T06:52:02.092Z,11.00
2023-03-10T06:54:33.515Z,11.07
2023-03-10T06:57:05.368Z,8.77
2023-03-10T06:59:36.811Z,9.47
2023-03-10T07:02:11.480Z,10.47
2023-03-10T07:04:42.798Z,10.00
2023-03-10T07:07:14.726Z,10.63
2023-03-10T07:09:46.327Z,9.77
2023-03-10T07:12:17.765Z,10.07
2023-03-10T07:14:49.233Z,10.07
2023-03-10T07:17:20.682Z,9.07
2023-03-10T07:19:52.050Z,10.27
2023-03-10T07:22:23.530Z,9.93
2023-03-10T07:24:55.820Z,10.53
2023-03-10T07:27:27.132Z,10.60
2023-03-10T07:29:58.517Z,9.53
2023-03-10T07:32:29.888Z,10.10
2023-03-10T07:35:01.445Z,10.17
2023-03-10T07:37:32.779Z,10.90
2023-03-10T07:40:05.803Z,9.63
2023-03-10T07:42:37.319Z,9.97
2023-03-10T07:45:09.080Z,9.80
2023-03-10T07:47:40.518Z,9.40
2023-03-10T07:50:12.158Z,9.67
2023-03-10T07:52:43.565Z,10.30
2023-03-10T07:55:15.156Z,11.07
2023-03-10T07:57:46.538Z,11.17
2023-03-10T08:00:18.583Z,10.80
2023-03-10T08:02:49.967Z,10.20
2023-03-10T08:05:21.499Z,10.00
2023-03-10T08:07:52.946Z,9.87
2023-03-10T08:10:24.458Z,10.57
2023-03-10T08:12:55.759Z,10.40
2023-03-10T08:15:27.222Z,9.77
2023-03-10T08:17:58.618Z,9.93
2023-03-10T08:20:29.933Z,10.33
2023-03-10T08:23:01.589Z,10.90
2023-03-10T08:25:32.866Z,10.63
2023-03-10T08:28:04.305Z,10.63
2023-03-10T08:30:43.665Z,10.03
2023-03-10T08:33:24.281Z,10.53
2023-03-10T08:36:10.629Z,10.30
2023-03-10T08:38:42.869Z,10.32
2023-03-10T08:41:23.952Z,10.77
2023-03-10T08:43:56.642Z,9.70
2023-03-10T08:46:31.626Z,9.33
2023-03-10T08:49:03.393Z,9.90
2023-03-10T08:51:34.781Z,9.13
2023-03-10T08:54:06.769Z,10.13
2023-03-10T08:56:38.524Z,9.40
2023-03-10T08:59:09.865Z,8.80
2023-03-10T09:01:41.646Z,8.00
2023-03-10T09:04:13.080Z,8.97
2023-03-10T09:06:44.583Z,8.90
2023-03-10T09:09:16.972Z,8.37
2023-03-10T09:11:50.407Z,7.97
2023-03-10T09:14:21.691Z,8.93
2023-03-10T09:16:53.188Z,9.07
2023-03-10T09:19:24.649Z,9.60
2023-03-10T09:21:57.398Z,9.03
2023-03-10T09:24:29.979Z,8.33
2023-03-10T09:27:10.775Z,8.73
2023-03-10T09:29:43.615Z,9.57
2023-03-10T09:32:15.244Z,9.97
2023-03-10T09:34:46.602Z,9.70
2023-03-10T09:37:17.969Z,9.20
2023-03-10T09:39:51.627Z,9.40
2023-03-10T09:42:38.255Z,8.63
2023-03-10T09:45:20.068Z,7.97
2023-03-10T09:48:16.642Z,9.23
2023-03-10T09:50:56.281Z,8.70
2023-03-10T09:53:44.349Z,8.30
2023-03-10T09:56:19.048Z,8.13
2023-03-10T09:59:05.363Z,8.37
2023-03-10T10:01:38.714Z,8.75
2023-03-10T10:04:27.217Z,7.40
2023-03-10T10:07:00.449Z,9.37
2023-03-10T10:09:43.447Z,8.33
2023-03-10T10:12:17.015Z,8.23
2023-03-10T10:14:57.170Z,7.93
2023-03-10T10:18:02.985Z,8.07
2023-03-10T10:20:50.049Z,8.77
2023-03-10T10:23:30.021Z,8.50
2023-03-10T10:26:10.581Z,7.87
2023-03-10T10:28:54.283Z,8.37
2023-03-10T10:31:31.296Z,7.73
2023-03-10T10:34:22.104Z,8.17
2023-03-10T10:36:55.884Z,7.67
2023-03-10T10:39:32.438Z,8.80
2023-03-10T10:42:27.331Z,8.80
2023-03-10T10:45:00.682Z,8.20
2023-03-10T10:47:37.710Z,8.60
2023-03-10T10:50:24.709Z,8.53
2023-03-10T10:53:17.641Z,9.20
2023-03-10T10:56:04.175Z,8.67
2023-03-10T10:58:38.427Z,9.57
2023-03-10T11:01:13.115Z,9.57
2023-03-10T11:03:47.878Z,9.03
2023-03-10T11:06:32.142Z,10.97
2023-03-10T11:09:08.226Z,7.87
2023-03-10T11:12:20.125Z,9.07
2023-03-10T11:15:02.852Z,9.37
2023-03-10T11:17:49.095Z,8.47
2023-03-10T11:20:55.852Z,9.32
2023-03-10T11:23:39.160Z,10.00
2023-03-10T11:26:24.572Z,9.43
2023-03-10T11:29:21.349Z,9.50
2023-03-10T11:32:09.821Z,9.90
2023-03-10T11:34:49.069Z,9.40
2023-03-10T11:37:43.102Z,9.53
2023-03-10T11:40:43.498Z,9.80
2023-03-10T11:43:23.665Z,9.53
2023-03-10T11:46:00.380Z,8.93
2023-03-10T11:49:02.249Z,8.97
2023-03-10T11:51:45.300Z,10.23
2023-03-10T11:54:27.397Z,9.23
2023-03-10T11:57:02.287Z,9.47
2023-03-10T11:59:36.961Z,10.67
2023-03-10T12:02:26.680Z,10.83
2023-03-10T12:05:07.832Z,10.20
2023-03-10T12:07:42.698Z,10.70
2023-03-10T12:10:17.663Z,10.37
2023-03-10T12:12:51.112Z,9.67
2023-03-10T12:15:30.378Z,11.53
2023-03-10T12:18:04.147Z,11.57
2023-03-10T12:20:36.260Z,10.23
2023-03-10T12:23:10.394Z,10.50
2023-03-10T12:25:43.740Z,11.60
2023-03-10T12:28:20.791Z,10.60
2023-03-10T12:31:10.450Z,10.00
2023-03-10T12:33:45.020Z,10.27
2023-03-10T12:36:34.511Z,10.23
2023-03-10T12:39:43.291Z,10.33
2023-03-10T12:42:31.997Z,10.73
2023-03-10T12:45:25.435Z,9.67
2023-03-10T12:48:02.855Z,10.90
2023-03-10T12:50:47.419Z,10.53
2023-03-10T12:53:32.406Z,9.20
2023-03-10T12:56:12.484Z,9.20
2023-03-10T12:58:49.790Z,9.57
2023-03-10T13:01:24.120Z,9.50
2023-03-10T13:03:55.957Z,9.50
2023-03-10T13:06:37.564Z,10.87
2023-03-10T13:09:10.704Z,10.70
2023-03-10T13:11:53.268Z,10.17
2023-03-10T13:14:35.525Z,8.50
2023-03-10T13:17:09.498Z,9.10
2023-03-10T13:19:40.880Z,9.80
2023-03-10T13:22:17.369Z,9.23
2023-03-10T13:25:01.083Z,10.30
2023-03-10T13:27:35.710Z,9.90
2023-03-10T13:30:19.874Z,10.30
2023-03-10T13:32:53.502Z,9.70
2023-03-10T13:35:39.061Z,10.67
2023-03-10T13:38:20.716Z,10.63
2023-03-10T13:41:01.000Z,11.80
2023-03-10T13:43:41.365Z,10.37
2023-03-10T13:46:25.003Z,10.40
2023-03-10T13:49:03.769Z,11.43
2023-03-10T13:51:37.213Z,10.57
2023-03-10T13:54:28.019Z,10.10
2023-03-10T13:57:34.721Z,11.67
2023-03-10T14:00:09.980Z,9.83
2023-03-10T14:02:44.926Z,12.03
2023-03-10T14:05:39.899Z,10.23
2023-03-10T14:08:32.687Z,10.10
2023-03-10T14:11:32.269Z,10.67
2023-03-10T14:14:07.726Z,10.93
2023-03-10T14:16:55.043Z,10.80
2023-03-10T14:19:41.571Z,10.00
2023-03-10T14:22:24.857Z,11.18
2023-03-10T14:24:57.776Z,10.47
2023-03-10T14:27:29.198Z,10.77
2023-03-10T14:30:04.593Z,11.83
2023-03-10T14:32:35.961Z,12.53
2023-03-10T14:35:12.417Z,10.80
2023-03-10T14:40:15.448Z,8.23
2023-03-10T14:42:49.722Z,9.37
2023-03-10T14:45:36.122Z,10.70
2023-03-10T14:48:14.254Z,9.57
2023-03-10T14:50:46.985Z,9.83
2023-03-10T14:53:20.893Z,10.30
2023-03-10T14:55:55.217Z,10.23
2023-03-10T14:58:41.451Z,9.97
2023-03-10T15:01:13.091Z,10.45
2023-03-10T15:03:44.913Z,10.13
2023-03-10T15:06:19.068Z,11.67
2023-03-10T15:08:50.459Z,9.93
2023-03-10T15:11:36.105Z,12.03
2023-03-10T15:14:19.241Z,10.23
2023-03-10T15:16:50.616Z,8.77
2023-03-10T15:19:25.188Z,8.83
2023-03-10T15:21:56.546Z,9.30
2023-03-10T15:24:27.998Z,10.37
2023-03-10T15:26:59.463Z,9.50
2023-03-10T15:29:30.819Z,10.10
2023-03-10T15:32:02.157Z,9.33
2023-03-10T15:34:33.509Z,10.57
2023-03-10T15:37:07.308Z,11.67
2023-03-10T15:39:38.600Z,10.33
2023-03-10T15:42:09.855Z,8.80
2023-03-10T15:44:41.208Z,10.23
2023-03-10T15:47:12.487Z,8.83
2023-03-10T15:49:43.821Z,9.67
2023-03-10T15:52:15.096Z,9.57
2023-03-10T15:54:46.359Z,9.70
2023-03-10T15:57:17.698Z,8.10
2023-03-10T15:59:49.513Z,10.67
2023-03-10T16:02:20.947Z,10.03
2023-03-10T16:04:52.382Z,9.13
2023-03-10T16:07:23.670Z,9.73
2023-03-10T16:09:55.511Z,9.17
2023-03-10T16:12:27.445Z,9.23
2023-03-10T16:14:58.725Z,10.27
2023-03-10T16:17:30.093Z,10.30
2023-03-10T16:20:06.463Z,11.33
2023-03-10T16:25:17.584Z,10.70
2023-03-10T16:27:48.978Z,9.97
2023-03-10T16:30:20.456Z,10.47
2023-03-10T16:32:51.880Z,10.27
2023-03-10T16:35:23.183Z,11.33
2023-03-10T16:37:54.451Z,11.07
2023-03-10T16:40:25.798Z,10.37
2023-03-10T16:42:57.051Z,10.93
2023-03-10T16:45:28.348Z,9.93
2023-03-10T16:47:59.645Z,9.73
2023-03-10T16:50:33.255Z,9.97
2023-03-10T16:53:05.083Z,9.03
2023-03-10T16:55:36.501Z,10.57
2023-03-10T16:58:08.479Z,10.73
2023-03-10T17:00:40.819Z,10.10
2023-03-10T17:03:12.124Z,11.47
2023-03-10T17:05:43.448Z,10.07
2023-03-10T17:08:14.707Z,11.03
2023-03-10T17:10:46.028Z,11.97
2023-03-10T17:13:17.386Z,10.07
2023-03-10T17:15:48.772Z,11.40
2023-03-10T17:18:20.110Z,10.80
2023-03-10T17:20:51.661Z,10.93
2023-03-10T17:23:23.585Z,11.10
2023-03-10T17:25:56.862Z,11.70
2023-03-10T17:28:29.458Z,10.57
2023-03-10T17:31:05.681Z,11.83
2023-03-10T17:33:36.991Z,11.55
2023-03-10T17:36:13.571Z,10.30
2023-03-10T17:38:45.548Z,10.87
2023-03-10T17:41:16.871Z,10.90
2023-03-10T17:43:48.482Z,10.90
2023-03-10T17:46:24.106Z,10.80
2023-03-10T17:48:57.054Z,10.38
2023-03-10T17:51:31.052Z,12.03
2023-03-10T17:54:02.381Z,9.90
2023-03-10T17:56:33.787Z,10.53
2023-03-10T17:59:05.167Z,11.10
2023-03-10T18:01:36.597Z,12.30
2023-03-10T18:04:08.161Z,10.80
2023-03-10T18:06:39.897Z,12.27
2023-03-10T18:09:14.262Z,11.53
2023-03-10T18:11:45.543Z,12.23
2023-03-10T18:14:16.905Z,12.63
2023-03-10T18:16:48.183Z,10.43
2023-03-10T18:19:21.187Z,11.37
2023-03-10T18:21:53.308Z,9.57
2023-03-10T18:24:24.737Z,10.67
2023-03-10T18:26:57.217Z,13.50
2023-03-10T18:29:28.589Z,12.80
2023-03-10T18:31:59.979Z,9.37
2023-03-10T18:34:31.286Z,8.77
2023-03-10T18:37:02.811Z,10.57
2023-03-10T18:39:34.740Z,12.37
2023-03-10T18:42:06.290Z,11.67
2023-03-10T18:44:38.282Z,10.93
2023-03-10T18:47:09.666Z,10.30
2023-03-10T18:49:41.188Z,12.57
2023-03-10T18:52:18.598Z,10.67
2023-03-10T18:54:51.008Z,11.70
2023-03-10T18:57:22.293Z,9.97
2023-03-10T18:59:53.709Z,11.23
2023-03-10T19:02:25.007Z,10.60
2023-03-10T19:04:59.392Z,11.53
2023-03-10T19:07:32.792Z,11.57
2023-03-10T19:10:05.126Z,10.67
2023-03-10T19:12:36.414Z,11.63
2023-03-10T19:15:09.153Z,12.73
2023-03-10T19:17:40.979Z,10.77
2023-03-10T19:20:14.160Z,11.17
2023-03-10T19:22:50.449Z,11.57
2023-03-10T19:25:23.812Z,10.73
2023-03-10T19:27:55.368Z,11.33
2023-03-10T19:30:28.724Z,11.57
2023-03-10T19:33:11.221Z,12.00
2023-03-10T19:35:42.505Z,10.37
2023-03-10T19:38:14.031Z,10.57
2023-03-10T19:40:46.732Z,11.90
2023-03-10T19:43:18.030Z,13.17
2023-03-10T19:45:49.345Z,12.60
2023-03-10T19:48:20.646Z,12.17
2023-03-10T19:50:56.774Z,12.97
2023-03-10T19:53:29.538Z,12.23
2023-03-10T19:56:04.408Z,12.20
2023-03-10T19:58:37.982Z,12.13
2023-03-10T20:01:14.225Z,10.13
2023-03-10T20:03:45.781Z,10.73
2023-03-10T20:06:17.201Z,10.33
2023-03-10T20:08:48.644Z,10.63
2023-03-10T20:11:20.963Z,10.07
2023-03-10T20:13:53.825Z,10.60
2023-03-10T20:16:27.457Z,9.43
2023-03-10T20:18:59.728Z,9.40
2023-03-10T20:21:31.165Z,9.83
2023-03-10T20:24:02.565Z,11.03
2023-03-10T20:26:34.604Z,9.90
2023-03-10T20:29:06.098Z,10.70
2023-03-10T20:31:37.520Z,10.57
2023-03-10T20:34:17.422Z,12.57
2023-03-10T20:36:49.008Z,11.67
2023-03-10T20:39:20.529Z,11.27
2023-03-10T20:41:52.041Z,11.47
2023-03-10T20:44:23.331Z,9.47
2023-03-10T20:46:54.838Z,10.77
2023-03-10T20:49:28.803Z,10.63
2023-03-10T20:52:00.226Z,9.37
2023-03-10T20:54:31.541Z,8.87
2023-03-10T20:57:03.444Z,8.93
2023-03-10T20:59:36.366Z,7.47
2023-03-10T21:02:07.729Z,8.63
2023-03-10T21:04:39.135Z,9.60
2023-03-10T21:07:11.017Z,7.60
2023-03-10T21:09:42.334Z,7.60
2023-03-10T21:12:18.357Z,9.20
2023-03-10T21:14:49.703Z,8.68
2023-03-10T21:17:24.123Z,7.87
2023-03-10T21:19:55.543Z,8.23
2023-03-10T21:22:30.267Z,7.87
2023-03-10T21:25:02.760Z,8.37
2023-03-10T21:27:35.516Z,8.17
2023-03-10T21:30:09.765Z,7.17
2023-03-10T21:32:44.668Z,7.50
2023-03-10T21:35:16.287Z,7.33
2023-03-10T21:37:48.392Z,5.73
2023-03-10T21:40:20.220Z,7.03
2023-03-10T21:42:51.543Z,6.97
2023-03-10T21:45:24.561Z,6.90
2023-03-10T21:47:56.009Z,7.50
2023-03-10T21:50:27.323Z,7.63
2023-03-10T21:52:58.662Z,7.97
2023-03-10T21:55:34.427Z,7.60
2023-03-10T21:58:05.905Z,7.85
2023-03-10T22:00:37.189Z,7.43
2023-03-10T22:03:08.509Z,8.37
2023-03-10T22:05:39.774Z,7.10
2023-03-10T22:08:11.102Z,8.27
2023-03-10T22:10:42.938Z,8.63
2023-03-10T22:13:14.494Z,8.33
2023-03-10T22:15:45.910Z,7.73
2023-03-10T22:18:17.308Z,8.43
2023-03-10T22:20:48.728Z,8.70
2023-03-10T22:23:20.041Z,8.00
2023-03-10T22:25:51.577Z,8.77
2023-03-10T22:28:23.367Z,7.63
2023-03-10T22:30:54.751Z,9.20
2023-03-10T22:33:26.137Z,9.10
2023-03-10T22:36:02.718Z,8.97
2023-03-10T22:38:34.105Z,8.13
2023-03-10T22:41:10.572Z,8.07
2023-03-10T22:46:15.902Z,7.33
2023-03-10T22:48:47.433Z,7.10
2023-03-10T22:51:18.767Z,7.10
2023-03-10T22:53:50.701Z,7.97
2023-03-10T22:56:21.984Z,8.90
2023-03-10T22:58:53.532Z,7.30
2023-03-10T23:01:24.909Z,7.77
2023-03-10T23:03:56.232Z,8.17
2023-03-10T23:06:31.736Z,8.20
2023-03-10T23:09:04.357Z,8.82
2023-03-10T23:11:35.679Z,8.97
2023-03-10T23:14:07.376Z,8.50
2023-03-10T23:16:38.910Z,8.47
2023-03-10T23:19:10.228Z,9.43
2023-03-10T23:21:41.601Z,9.30
2023-03-10T23:24:12.968Z,8.53
2023-03-10T23:26:44.285Z,8.67
2023-03-10T23:29:15.564Z,8.97
2023-03-10T23:31:46.995Z,9.47
2023-03-10T23:34:18.523Z,8.87
2023-03-10T23:36:50.047Z,9.60
2023-03-10T23:39:21.841Z,9.57
2023-03-10T23:41:53.125Z,9.37
2023-03-10T23:44:24.450Z,8.80
2023-03-10T23:46:55.765Z,9.27
2023-03-10T23:49:27.034Z,8.77
2023-03-10T23:51:58.311Z,9.83
2023-03-10T23:54:30.140Z,9.57
2023-03-10T23:57:01.492Z,10.13
2023-03-10T23:59:32.839Z,9.53
